sensor_id;sensor_type;location;lat;lon;timestamp;P1;durP1;ratioP1;P2;durP2;ratioP2
4583;SDS011;2304;47.606;12.186;2023-05-13T00:02:55;17.20;;;11.90;;
4583;SDS011;2304;47.606;12.186;2023-05-13T00:07:57;22.90;;;12.57;;
4583;SDS011;2304;47.606;12.186;2023-05-13T00:13:02;15.00;;;12.70;;
4583;SDS011;2304;47.606;12.186;2023-05-13T00:18:04;18.00;;;12.80;;
4583;SDS011;2304;47.606;12.186;2023-05-13T00:23:05;14.30;;;12.50;;
4583;SDS011;2304;47.606;12.186;2023-05-13T00:28:09;12.77;;;11.07;;
4583;SDS011;2304;47.606;12.186;2023-05-13T00:33:13;12.97;;;11.53;;
4583;SDS011;2304;47.606;12.186;2023-05-13T00:38:14;15.30;;;12.90;;
4583;SDS011;2304;47.606;12.186;2023-05-13T00:43:18;15.23;;;11.43;;
4583;SDS011;2304;47.606;12.186;2023-05-13T00:48:19;19.00;;;12.70;;
4583;SDS011;2304;47.606;12.186;2023-05-13T00:53:22;15.27;;;12.33;;
4583;SDS011;2304;47.606;12.186;2023-05-13T00:58:25;17.10;;;11.93;;
4583;SDS011;2304;47.606;12.186;2023-05-13T01:03:28;15.17;;;12.70;;
4583;SDS011;2304;47.606;12.186;2023-05-13T01:08:38;16.70;;;13.03;;
4583;SDS011;2304;47.606;12.186;2023-05-13T01:13:49;14.13;;;12.00;;
4583;SDS011;2304;47.606;12.186;2023-05-13T01:19:04;14.33;;;12.33;;
4583;SDS011;2304;47.606;12.186;2023-05-13T01:24:14;16.23;;;12.73;;
4583;SDS011;2304;47.606;12.186;2023-05-13T01:29:16;18.40;;;12.50;;
4583;SDS011;2304;47.606;12.186;2023-05-13T01:34:18;16.00;;;13.50;;
4583;SDS011;2304;47.606;12.186;2023-05-13T01:39:24;15.93;;;13.60;;
4583;SDS011;2304;47.606;12.186;2023-05-13T01:44:26;17.70;;;14.53;;
4583;SDS011;2304;47.606;12.186;2023-05-13T01:49:27;18.23;;;13.93;;
4583;SDS011;2304;47.606;12.186;2023-05-13T01:54:31;16.90;;;13.27;;
4583;SDS011;2304;47.606;12.186;2023-05-13T01:59:32;21.07;;;14.43;;
4583;SDS011;2304;47.606;12.186;2023-05-13T02:04:34;18.20;;;14.37;;
4583;SDS011;2304;47.606;12.186;2023-05-13T02:09:38;16.90;;;13.50;;
4583;SDS011;2304;47.606;12.186;2023-05-13T02:14:42;19.17;;;15.10;;
4583;SDS011;2304;47.606;12.186;2023-05-13T02:19:44;16.40;;;13.80;;
4583;SDS011;2304;47.606;12.186;2023-05-13T02:24:47;22.47;;;15.03;;
4583;SDS011;2304;47.606;12.186;2023-05-13T02:29:49;19.87;;;15.37;;
4583;SDS011;2304;47.606;12.186;2023-05-13T02:34:51;17.27;;;14.20;;
4583;SDS011;2304;47.606;12.186;2023-05-13T02:39:54;19.50;;;15.33;;
4583;SDS011;2304;47.606;12.186;2023-05-13T02:44:56;23.03;;;15.67;;
4583;SDS011;2304;47.606;12.186;2023-05-13T02:49:57;20.33;;;15.77;;
4583;SDS011;2304;47.606;12.186;2023-05-13T02:55:01;20.60;;;16.17;;
4583;SDS011;2304;47.606;12.186;2023-05-13T03:00:03;22.27;;;17.07;;
4583;SDS011;2304;47.606;12.186;2023-05-13T03:05:06;23.83;;;17.90;;
4583;SDS011;2304;47.606;12.186;2023-05-13T03:10:10;23.87;;;17.43;;
4583;SDS011;2304;47.606;12.186;2023-05-13T03:15:12;23.67;;;18.77;;
4583;SDS011;2304;47.606;12.186;2023-05-13T03:20:15;28.07;;;18.53;;
4583;SDS011;2304;47.606;12.186;2023-05-13T03:25:19;26.73;;;19.67;;
4583;SDS011;2304;47.606;12.186;2023-05-13T03:30:21;25.50;;;18.10;;
4583;SDS011;2304;47.606;12.186;2023-05-13T03:35:22;25.40;;;17.63;;
4583;SDS011;2304;47.606;12.186;2023-05-13T03:40:25;24.77;;;17.90;;
4583;SDS011;2304;47.606;12.186;2023-05-13T03:45:27;25.60;;;17.50;;
4583;SDS011;2304;47.606;12.186;2023-05-13T03:50:29;27.17;;;19.27;;
4583;SDS011;2304;47.606;12.186;2023-05-13T03:55:32;24.87;;;17.07;;
4583;SDS011;2304;47.606;12.186;2023-05-13T04:00:34;32.30;;;19.60;;
4583;SDS011;2304;47.606;12.186;2023-05-13T04:05:36;25.27;;;17.23;;
4583;SDS011;2304;47.606;12.186;2023-05-13T04:10:39;25.90;;;18.93;;
4583;SDS011;2304;47.606;12.186;2023-05-13T04:15:41;24.77;;;18.27;;
4583;SDS011;2304;47.606;12.186;2023-05-13T04:20:43;29.27;;;19.17;;
4583;SDS011;2304;47.606;12.186;2023-05-13T04:25:50;26.03;;;18.10;;
4583;SDS011;2304;47.606;12.186;2023-05-13T04:30:52;25.93;;;18.20;;
4583;SDS011;2304;47.606;12.186;2023-05-13T04:35:54;24.77;;;18.97;;
4583;SDS011;2304;47.606;12.186;2023-05-13T04:40:57;26.07;;;17.70;;
4583;SDS011;2304;47.606;12.186;2023-05-13T04:45:59;28.20;;;19.60;;
4583;SDS011;2304;47.606;12.186;2023-05-13T04:51:01;25.90;;;18.57;;
4583;SDS011;2304;47.606;12.186;2023-05-13T04:56:04;25.60;;;19.07;;
4583;SDS011;2304;47.606;12.186;2023-05-13T05:01:06;26.33;;;19.57;;
4583;SDS011;2304;47.606;12.186;2023-05-13T05:06:08;25.37;;;19.20;;
4583;SDS011;2304;47.606;12.186;2023-05-13T05:11:11;24.77;;;19.10;;
4583;SDS011;2304;47.606;12.186;2023-05-13T05:16:13;32.87;;;21.20;;
4583;SDS011;2304;47.606;12.186;2023-05-13T05:21:15;31.00;;;21.40;;
4583;SDS011;2304;47.606;12.186;2023-05-13T05:26:18;27.13;;;19.33;;
4583;SDS011;2304;47.606;12.186;2023-05-13T05:31:21;28.57;;;20.50;;
4583;SDS011;2304;47.606;12.186;2023-05-13T05:36:23;31.33;;;20.90;;
4583;SDS011;2304;47.606;12.186;2023-05-13T05:41:26;28.83;;;20.90;;
4583;SDS011;2304;47.606;12.186;2023-05-13T05:46:28;30.53;;;20.33;;
4583;SDS011;2304;47.606;12.186;2023-05-13T05:51:30;32.17;;;21.80;;
4583;SDS011;2304;47.606;12.186;2023-05-13T05:56:33;33.97;;;22.60;;
4583;SDS011;2304;47.606;12.186;2023-05-13T06:01:35;35.20;;;22.80;;
4583;SDS011;2304;47.606;12.186;2023-05-13T06:06:37;29.53;;;20.90;;
4583;SDS011;2304;47.606;12.186;2023-05-13T06:11:40;27.77;;;20.47;;
4583;SDS011;2304;47.606;12.186;2023-05-13T06:16:42;28.60;;;21.00;;
4583;SDS011;2304;47.606;12.186;2023-05-13T06:21:44;25.77;;;18.37;;
4583;SDS011;2304;47.606;12.186;2023-05-13T06:26:47;25.87;;;18.90;;
4583;SDS011;2304;47.606;12.186;2023-05-13T06:31:49;26.10;;;18.20;;
4583;SDS011;2304;47.606;12.186;2023-05-13T06:36:51;24.57;;;17.60;;
4583;SDS011;2304;47.606;12.186;2023-05-13T06:41:54;21.63;;;16.97;;
4583;SDS011;2304;47.606;12.186;2023-05-13T06:46:56;22.83;;;17.30;;
4583;SDS011;2304;47.606;12.186;2023-05-13T06:51:57;21.90;;;17.13;;
4583;SDS011;2304;47.606;12.186;2023-05-13T06:57:01;21.37;;;16.50;;
4583;SDS011;2304;47.606;12.186;2023-05-13T07:02:04;21.33;;;16.10;;
4583;SDS011;2304;47.606;12.186;2023-05-13T07:07:08;19.03;;;14.23;;
4583;SDS011;2304;47.606;12.186;2023-05-13T07:12:11;18.90;;;14.60;;
4583;SDS011;2304;47.606;12.186;2023-05-13T07:17:13;18.30;;;14.20;;
4583;SDS011;2304;47.606;12.186;2023-05-13T07:22:15;17.23;;;13.27;;
4583;SDS011;2304;47.606;12.186;2023-05-13T07:27:18;18.77;;;13.90;;
4583;SDS011;2304;47.606;12.186;2023-05-13T07:32:20;16.60;;;12.97;;
4583;SDS011;2304;47.606;12.186;2023-05-13T07:37:22;14.83;;;12.50;;
4583;SDS011;2304;47.606;12.186;2023-05-13T07:42:25;18.00;;;12.50;;
4583;SDS011;2304;47.606;12.186;2023-05-13T07:47:28;14.70;;;11.03;;
4583;SDS011;2304;47.606;12.186;2023-05-13T07:52:32;14.93;;;11.70;;
4583;SDS011;2304;47.606;12.186;2023-05-13T07:57:35;14.90;;;11.73;;
4583;SDS011;2304;47.606;12.186;2023-05-13T08:02:37;15.53;;;10.80;;
4583;SDS011;2304;47.606;12.186;2023-05-13T08:07:39;12.87;;;10.63;;
4583;SDS011;2304;47.606;12.186;2023-05-13T08:12:42;15.57;;;10.67;;
4583;SDS011;2304;47.606;12.186;2023-05-13T08:17:49;14.23;;;10.70;;
4583;SDS011;2304;47.606;12.186;2023-05-13T08:22:52;12.10;;;9.90;;
4583;SDS011;2304;47.606;12.186;2023-05-13T08:27:55;13.07;;;9.80;;
4583;SDS011;2304;47.606;12.186;2023-05-13T08:32:57;14.53;;;10.37;;
4583;SDS011;2304;47.606;12.186;2023-05-13T08:37:59;15.40;;;10.27;;
4583;SDS011;2304;47.606;12.186;2023-05-13T08:43:04;12.30;;;8.77;;
4583;SDS011;2304;47.606;12.186;2023-05-13T08:48:06;12.17;;;9.10;;
4583;SDS011;2304;47.606;12.186;2023-05-13T08:53:11;11.90;;;8.93;;
4583;SDS011;2304;47.606;12.186;2023-05-13T08:58:14;12.27;;;8.77;;
4583;SDS011;2304;47.606;12.186;2023-05-13T09:03:16;11.23;;;8.77;;
4583;SDS011;2304;47.606;12.186;2023-05-13T09:08:19;9.13;;;7.40;;
4583;SDS011;2304;47.606;12.186;2023-05-13T09:13:22;10.10;;;8.33;;
4583;SDS011;2304;47.606;12.186;2023-05-13T09:18:28;11.80;;;8.30;;
4583;SDS011;2304;47.606;12.186;2023-05-13T09:23:31;9.03;;;7.60;;
4583;SDS011;2304;47.606;12.186;2023-05-13T09:28:34;9.33;;;7.70;;
4583;SDS011;2304;47.606;12.186;2023-05-13T09:33:36;7.70;;;6.53;;
4583;SDS011;2304;47.606;12.186;2023-05-13T09:38:38;8.23;;;6.20;;
4583;SDS011;2304;47.606;12.186;2023-05-13T09:43:41;7.47;;;6.00;;
4583;SDS011;2304;47.606;12.186;2023-05-13T09:48:43;7.73;;;6.50;;
4583;SDS011;2304;47.606;12.186;2023-05-13T09:53:45;6.87;;;5.63;;
4583;SDS011;2304;47.606;12.186;2023-05-13T09:58:51;10.00;;;6.17;;
4583;SDS011;2304;47.606;12.186;2023-05-13T10:03:53;10.80;;;6.60;;
4583;SDS011;2304;47.606;12.186;2023-05-13T10:08:56;8.73;;;6.60;;
4583;SDS011;2304;47.606;12.186;2023-05-13T10:14:00;7.20;;;6.00;;
4583;SDS011;2304;47.606;12.186;2023-05-13T10:19:05;7.10;;;5.90;;
4583;SDS011;2304;47.606;12.186;2023-05-13T10:24:07;6.97;;;5.87;;
4583;SDS011;2304;47.606;12.186;2023-05-13T10:29:10;6.37;;;5.40;;
4583;SDS011;2304;47.606;12.186;2023-05-13T10:34:13;5.77;;;4.50;;
4583;SDS011;2304;47.606;12.186;2023-05-13T10:39:18;5.30;;;4.77;;
4583;SDS011;2304;47.606;12.186;2023-05-13T10:44:43;5.40;;;4.50;;
4583;SDS011;2304;47.606;12.186;2023-05-13T10:49:48;4.80;;;4.10;;
4583;SDS011;2304;47.606;12.186;2023-05-13T10:54:58;5.53;;;4.30;;
4583;SDS011;2304;47.606;12.186;2023-05-13T11:00:13;4.87;;;3.20;;
4583;SDS011;2304;47.606;12.186;2023-05-13T11:05:18;3.40;;;2.80;;
4583;SDS011;2304;47.606;12.186;2023-05-13T11:10:23;5.20;;;3.67;;
4583;SDS011;2304;47.606;12.186;2023-05-13T11:15:34;4.90;;;3.50;;
4583;SDS011;2304;47.606;12.186;2023-05-13T11:20:44;4.23;;;3.10;;
4583;SDS011;2304;47.606;12.186;2023-05-13T11:26:07;7.20;;;2.67;;
4583;SDS011;2304;47.606;12.186;2023-05-13T11:31:15;3.30;;;2.90;;
4583;SDS011;2304;47.606;12.186;2023-05-13T11:36:17;2.80;;;2.30;;
4583;SDS011;2304;47.606;12.186;2023-05-13T11:41:20;3.00;;;2.70;;
4583;SDS011;2304;47.606;12.186;2023-05-13T11:46:23;3.90;;;2.80;;
4583;SDS011;2304;47.606;12.186;2023-05-13T11:51:26;2.43;;;2.13;;
4583;SDS011;2304;47.606;12.186;2023-05-13T11:56:28;3.40;;;2.50;;
4583;SDS011;2304;47.606;12.186;2023-05-13T12:01:32;4.43;;;3.20;;
4583;SDS011;2304;47.606;12.186;2023-05-13T12:06:34;4.00;;;3.50;;
4583;SDS011;2304;47.606;12.186;2023-05-13T12:11:43;3.93;;;3.07;;
4583;SDS011;2304;47.606;12.186;2023-05-13T12:16:46;4.03;;;3.47;;
4583;SDS011;2304;47.606;12.186;2023-05-13T12:21:48;4.10;;;3.37;;
4583;SDS011;2304;47.606;12.186;2023-05-13T12:26:50;8.37;;;3.80;;
4583;SDS011;2304;47.606;12.186;2023-05-13T12:32:04;6.47;;;4.40;;
4583;SDS011;2304;47.606;12.186;2023-05-13T12:37:10;5.23;;;4.03;;
4583;SDS011;2304;47.606;12.186;2023-05-13T12:42:12;5.30;;;4.80;;
4583;SDS011;2304;47.606;12.186;2023-05-13T12:47:16;6.03;;;5.13;;
4583;SDS011;2304;47.606;12.186;2023-05-13T12:52:19;6.50;;;5.60;;
4583;SDS011;2304;47.606;12.186;2023-05-13T12:57:21;7.03;;;4.90;;
4583;SDS011;2304;47.606;12.186;2023-05-13T13:02:24;5.73;;;4.90;;
4583;SDS011;2304;47.606;12.186;2023-05-13T13:07:27;6.50;;;5.37;;
4583;SDS011;2304;47.606;12.186;2023-05-13T13:12:28;7.10;;;5.67;;
4583;SDS011;2304;47.606;12.186;2023-05-13T13:17:31;4.90;;;4.27;;
4583;SDS011;2304;47.606;12.186;2023-05-13T13:22:33;4.70;;;3.80;;
4583;SDS011;2304;47.606;12.186;2023-05-13T13:27:36;5.03;;;4.53;;
4583;SDS011;2304;47.606;12.186;2023-05-13T13:32:39;4.80;;;4.20;;
4583;SDS011;2304;47.606;12.186;2023-05-13T13:37:41;5.73;;;4.00;;
4583;SDS011;2304;47.606;12.186;2023-05-13T13:42:42;4.50;;;3.63;;
4583;SDS011;2304;47.606;12.186;2023-05-13T13:47:45;4.07;;;3.40;;
4583;SDS011;2304;47.606;12.186;2023-05-13T13:52:47;4.87;;;4.37;;
4583;SDS011;2304;47.606;12.186;2023-05-13T13:57:51;16.30;;;13.17;;
4583;SDS011;2304;47.606;12.186;2023-05-13T14:02:54;6.27;;;5.67;;
4583;SDS011;2304;47.606;12.186;2023-05-13T14:07:56;5.57;;;4.57;;
4583;SDS011;2304;47.606;12.186;2023-05-13T14:12:58;4.80;;;4.13;;
4583;SDS011;2304;47.606;12.186;2023-05-13T14:18:01;5.00;;;4.13;;
4583;SDS011;2304;47.606;12.186;2023-05-13T14:23:03;5.80;;;5.00;;
4583;SDS011;2304;47.606;12.186;2023-05-13T14:28:05;4.87;;;4.10;;
4583;SDS011;2304;47.606;12.186;2023-05-13T14:33:08;5.20;;;4.53;;
4583;SDS011;2304;47.606;12.186;2023-05-13T14:38:10;8.70;;;7.90;;
4583;SDS011;2304;47.606;12.186;2023-05-13T14:43:12;4.73;;;4.07;;
4583;SDS011;2304;47.606;12.186;2023-05-13T14:48:15;5.67;;;4.33;;
4583;SDS011;2304;47.606;12.186;2023-05-13T14:53:17;5.47;;;4.13;;
4583;SDS011;2304;47.606;12.186;2023-05-13T14:58:19;4.33;;;3.60;;
4583;SDS011;2304;47.606;12.186;2023-05-13T15:03:22;4.50;;;3.87;;
4583;SDS011;2304;47.606;12.186;2023-05-13T15:08:24;5.30;;;3.60;;
4583;SDS011;2304;47.606;12.186;2023-05-13T15:13:26;4.07;;;3.50;;
4583;SDS011;2304;47.606;12.186;2023-05-13T15:18:33;3.97;;;3.30;;
4583;SDS011;2304;47.606;12.186;2023-05-13T15:23:34;4.50;;;3.80;;
4583;SDS011;2304;47.606;12.186;2023-05-13T15:28:36;3.97;;;3.10;;
4583;SDS011;2304;47.606;12.186;2023-05-13T15:33:40;5.60;;;3.70;;
4583;SDS011;2304;47.606;12.186;2023-05-13T15:38:42;6.77;;;3.00;;
4583;SDS011;2304;47.606;12.186;2023-05-13T15:43:44;6.50;;;3.80;;
4583;SDS011;2304;47.606;12.186;2023-05-13T15:48:47;6.97;;;4.20;;
4583;SDS011;2304;47.606;12.186;2023-05-13T15:53:49;7.17;;;3.63;;
4583;SDS011;2304;47.606;12.186;2023-05-13T15:58:51;5.23;;;3.90;;
4583;SDS011;2304;47.606;12.186;2023-05-13T16:03:56;4.70;;;3.30;;
4583;SDS011;2304;47.606;12.186;2023-05-13T16:08:57;6.70;;;3.50;;
4583;SDS011;2304;47.606;12.186;2023-05-13T16:14:00;3.77;;;3.33;;
4583;SDS011;2304;47.606;12.186;2023-05-13T16:19:04;6.03;;;4.13;;
4583;SDS011;2304;47.606;12.186;2023-05-13T16:24:07;4.60;;;3.70;;
4583;SDS011;2304;47.606;12.186;2023-05-13T16:29:10;6.87;;;4.63;;
4583;SDS011;2304;47.606;12.186;2023-05-13T16:34:13;6.27;;;5.00;;
4583;SDS011;2304;47.606;12.186;2023-05-13T16:39:15;5.90;;;4.80;;
4583;SDS011;2304;47.606;12.186;2023-05-13T16:44:17;8.83;;;5.53;;
4583;SDS011;2304;47.606;12.186;2023-05-13T16:49:20;6.20;;;5.03;;
4583;SDS011;2304;47.606;12.186;2023-05-13T16:54:22;5.60;;;4.70;;
4583;SDS011;2304;47.606;12.186;2023-05-13T16:59:24;6.17;;;5.00;;
4583;SDS011;2304;47.606;12.186;2023-05-13T17:04:28;5.97;;;4.87;;
4583;SDS011;2304;47.606;12.186;2023-05-13T17:09:30;6.10;;;4.70;;
4583;SDS011;2304;47.606;12.186;2023-05-13T17:14:32;5.60;;;4.50;;
4583;SDS011;2304;47.606;12.186;2023-05-13T17:19:35;5.40;;;4.40;;
4583;SDS011;2304;47.606;12.186;2023-05-13T17:24:37;9.50;;;5.00;;
4583;SDS011;2304;47.606;12.186;2023-05-13T17:29:39;11.20;;;8.60;;
4583;SDS011;2304;47.606;12.186;2023-05-13T17:34:42;11.27;;;7.77;;
4583;SDS011;2304;47.606;12.186;2023-05-13T17:39:44;9.03;;;6.67;;
4583;SDS011;2304;47.606;12.186;2023-05-13T17:44:46;8.13;;;6.83;;
4583;SDS011;2304;47.606;12.186;2023-05-13T17:49:49;8.40;;;6.50;;
4583;SDS011;2304;47.606;12.186;2023-05-13T17:54:51;10.23;;;6.67;;
4583;SDS011;2304;47.606;12.186;2023-05-13T17:59:52;7.60;;;5.87;;
4583;SDS011;2304;47.606;12.186;2023-05-13T18:04:56;5.83;;;4.40;;
4583;SDS011;2304;47.606;12.186;2023-05-13T18:09:57;5.60;;;4.30;;
4583;SDS011;2304;47.606;12.186;2023-05-13T18:14:59;6.20;;;4.67;;
4583;SDS011;2304;47.606;12.186;2023-05-13T18:20:03;7.57;;;4.83;;
4583;SDS011;2304;47.606;12.186;2023-05-13T18:25:06;7.90;;;5.40;;
4583;SDS011;2304;47.606;12.186;2023-05-13T18:30:10;6.70;;;5.20;;
4583;SDS011;2304;47.606;12.186;2023-05-13T18:35:13;10.03;;;6.97;;
4583;SDS011;2304;47.606;12.186;2023-05-13T18:40:15;14.20;;;7.20;;
4583;SDS011;2304;47.606;12.186;2023-05-13T18:45:17;8.70;;;6.53;;
4583;SDS011;2304;47.606;12.186;2023-05-13T18:50:20;8.37;;;6.73;;
4583;SDS011;2304;47.606;12.186;2023-05-13T18:55:22;8.77;;;6.57;;
4583;SDS011;2304;47.606;12.186;2023-05-13T19:00:24;9.20;;;6.50;;
4583;SDS011;2304;47.606;12.186;2023-05-13T19:05:27;8.93;;;6.30;;
4583;SDS011;2304;47.606;12.186;2023-05-13T19:10:29;7.77;;;5.80;;
4583;SDS011;2304;47.606;12.186;2023-05-13T19:15:31;7.50;;;6.10;;
4583;SDS011;2304;47.606;12.186;2023-05-13T19:20:34;9.07;;;6.57;;
4583;SDS011;2304;47.606;12.186;2023-05-13T19:25:36;8.10;;;6.47;;
4583;SDS011;2304;47.606;12.186;2023-05-13T19:30:41;7.80;;;6.20;;
4583;SDS011;2304;47.606;12.186;2023-05-13T19:35:44;11.33;;;7.13;;
4583;SDS011;2304;47.606;12.186;2023-05-13T19:40:46;13.60;;;8.97;;
4583;SDS011;2304;47.606;12.186;2023-05-13T19:45:48;9.53;;;7.70;;
4583;SDS011;2304;47.606;12.186;2023-05-13T19:50:51;9.50;;;7.97;;
4583;SDS011;2304;47.606;12.186;2023-05-13T19:55:53;8.30;;;6.20;;
4583;SDS011;2304;47.606;12.186;2023-05-13T20:00:55;9.03;;;6.10;;
4583;SDS011;2304;47.606;12.186;2023-05-13T20:05:58;12.60;;;8.20;;
4583;SDS011;2304;47.606;12.186;2023-05-13T20:11:01;7.80;;;6.40;;
4583;SDS011;2304;47.606;12.186;2023-05-13T20:16:03;8.07;;;6.40;;
4583;SDS011;2304;47.606;12.186;2023-05-13T20:21:06;9.83;;;6.27;;
4583;SDS011;2304;47.606;12.186;2023-05-13T20:26:08;8.57;;;6.73;;
4583;SDS011;2304;47.606;12.186;2023-05-13T20:31:10;8.73;;;5.97;;
4583;SDS011;2304;47.606;12.186;2023-05-13T20:36:13;7.83;;;5.43;;
4583;SDS011;2304;47.606;12.186;2023-05-13T20:41:15;7.77;;;5.43;;
4583;SDS011;2304;47.606;12.186;2023-05-13T20:46:17;5.60;;;4.53;;
4583;SDS011;2304;47.606;12.186;2023-05-13T20:51:20;5.37;;;3.63;;
4583;SDS011;2304;47.606;12.186;2023-05-13T20:56:22;7.23;;;4.20;;
4583;SDS011;2304;47.606;12.186;2023-05-13T21:01:23;4.93;;;3.40;;
4583;SDS011;2304;47.606;12.186;2023-05-13T21:06:27;7.43;;;5.10;;
4583;SDS011;2304;47.606;12.186;2023-05-13T21:11:29;6.70;;;4.27;;
4583;SDS011;2304;47.606;12.186;2023-05-13T21:16:31;6.47;;;4.07;;
4583;SDS011;2304;47.606;12.186;2023-05-13T21:21:35;9.73;;;4.10;;
4583;SDS011;2304;47.606;12.186;2023-05-13T21:26:36;5.00;;;3.60;;
4583;SDS011;2304;47.606;12.186;2023-05-13T21:31:38;5.90;;;4.00;;
4583;SDS011;2304;47.606;12.186;2023-05-13T21:36:41;7.63;;;3.67;;
4583;SDS011;2304;47.606;12.186;2023-05-13T21:41:44;5.50;;;3.17;;
4583;SDS011;2304;47.606;12.186;2023-05-13T21:46:46;4.80;;;3.27;;
4583;SDS011;2304;47.606;12.186;2023-05-13T21:51:49;7.63;;;4.20;;
4583;SDS011;2304;47.606;12.186;2023-05-13T21:56:51;5.50;;;3.50;;
4583;SDS011;2304;47.606;12.186;2023-05-13T22:01:53;4.50;;;3.33;;
4583;SDS011;2304;47.606;12.186;2023-05-13T22:06:56;4.40;;;3.73;;
4583;SDS011;2304;47.606;12.186;2023-05-13T22:11:58;4.17;;;3.10;;
4583;SDS011;2304;47.606;12.186;2023-05-13T22:17:00;10.43;;;3.57;;
4583;SDS011;2304;47.606;12.186;2023-05-13T22:22:03;7.30;;;3.70;;
4583;SDS011;2304;47.606;12.186;2023-05-13T22:27:05;7.43;;;4.10;;
4583;SDS011;2304;47.606;12.186;2023-05-13T22:32:07;8.37;;;3.70;;
4583;SDS011;2304;47.606;12.186;2023-05-13T22:37:11;7.10;;;3.50;;
4583;SDS011;2304;47.606;12.186;2023-05-13T22:42:12;5.67;;;3.50;;
4583;SDS011;2304;47.606;12.186;2023-05-13T22:47:14;4.93;;;2.90;;
4583;SDS011;2304;47.606;12.186;2023-05-13T22:52:18;4.50;;;3.37;;
4583;SDS011;2304;47.606;12.186;2023-05-13T22:57:20;5.13;;;3.40;;
4583;SDS011;2304;47.606;12.186;2023-05-13T23:02:21;5.00;;;3.17;;
4583;SDS011;2304;47.606;12.186;2023-05-13T23:07:25;8.67;;;4.00;;
4583;SDS011;2304;47.606;12.186;2023-05-13T23:12:26;7.80;;;4.07;;
4583;SDS011;2304;47.606;12.186;2023-05-13T23:17:29;9.90;;;4.27;;
4583;SDS011;2304;47.606;12.186;2023-05-13T23:22:32;8.93;;;3.83;;
4583;SDS011;2304;47.606;12.186;2023-05-13T23:27:34;6.70;;;3.53;;
4583;SDS011;2304;47.606;12.186;2023-05-13T23:32:36;7.20;;;3.83;;
4583;SDS011;2304;47.606;12.186;2023-05-13T23:37:39;12.53;;;3.70;;
4583;SDS011;2304;47.606;12.186;2023-05-13T23:42:41;6.60;;;3.93;;
4583;SDS011;2304;47.606;12.186;2023-05-13T23:47:43;7.70;;;3.57;;
4583;SDS011;2304;47.606;12.186;2023-05-13T23:52:46;5.70;;;3.80;;
4583;SDS011;2304;47.606;12.186;2023-05-13T23:57:50;6.73;;;4.10;;
